Aviation Digital Data Service (ADDS)

Output produced by METARs form (0244 UTC 24 July 2017)
found at http://www.aviationweather.gov/adds/metars/
 
UTDD 240230Z 08005MPS 9999 NSC 28/10 Q1006 R09/D NOSIG RMK QFE687/0916
TAF UTDD 240000Z 2401/2413 VRB02MPS 6000 FEW066 SCT150 
     TEMPO 2401/2407 07005MPS
       
UTAA 240200Z 26004KT 9999 NSC 27/06 Q1005 NOSIG
TAF UTAA 232230Z 2400/2424 10018KT 5000 SKC TX41/2411Z 530009 530905 
     TEMPO 2400/2412 02016KT 
     TEMPO 2416/2424 20014KT
       
UTAK 240200Z 02008KT CAVOK 26/20 Q1006 NOSIG
TAF UTAK 232230Z 2400/2424 34018G28KT 9999 SCT023 BKN100 530009 
     TEMPO 2400/2405 05018KT 5000 SCT008 SCT050CB 
     TEMPO 2405/2410 10018KT 5000 
     TEMPO 2410/2416 23020KT 5000
       
UTAM 240200Z 34004KT CAVOK 24/10 Q1004 NOSIG
TAF UTAM 232230Z 2400/2424 03016KT CAVOK TX40/2411Z 530009 
     TEMPO 2400/2403 36010KT 5000 SKC 
     TEMPO 2406/2414 02014G24KT 3000 DRDU NSC 
     BECMG 2414/2416 35012KT 6000 SKC
       
UTAT 240200Z 02004KT CAVOK 27/17 Q1006 NOSIG
TAF UTAT 232248Z 2400/2424 03014KT CAVOK 530009 
     TEMPO 2400/2406 09016KT
       
UTAV 240200Z 36006KT CAVOK 26/10 Q1003 NOSIG
TAF UTAV 232230Z 2400/2424 07012KT CAVOK 530007 
     TEMPO 2401/2413 01014G24KT 3000 DRDU SCT050 560006 
     BECMG 2415/2417 05010KT 5000 NSC 530003
       
UTDD 240230Z 08005MPS 9999 NSC 28/10 Q1006 R09/D NOSIG RMK QFE687/0916
TAF UTDD 240000Z 2401/2413 VRB02MPS 6000 FEW066 SCT150 
     TEMPO 2401/2407 07005MPS
       
UTDK 240230Z VRB01MPS 9999 NSC 30/09 Q1005 R01/09//70 RMK QFE697/0929
TAF UTDK 240000Z 2401/2410 03005MPS 6000 FEW066 SCT150 
     TEMPO 2401/2410 VRB02MPS
       
UTDL 240230Z 06004MPS 9999 FEW230 28/10 Q1005 88CLRD70 NOSIG RMK QFE715/0954
TAF UTDL 240000Z 2401/2410 VRB03MPS 9999 NSC 
     TEMPO 2404/2410 23005MPS
       
UTDT 240230Z 00000MPS 9999 NSC 29/14 Q1002 35////// RMK QFE713/0950
TAF UTDT 240000Z 2401/2410 VRB02MPS 6000 FEW066 SCT150 
     TEMPO 2404/2410 21006MPS
       
UTFF 240200Z 15006KT 9999 NSC 26/10 Q1006 R99/CLRD70
TAF UTFF 231800Z 2319/2404 15010KT 9999 NSC 
     TEMPO 2319/2401 18010G20KT SCT050CB SCT100
       
UTFN 240230Z 35004KT 9999 NSC 28/09 Q1006 R28/CLRD70 NOSIG
TAF UTFN 232300Z 2400/2424 15010KT 9999 NSC TX37/2410Z TN22/2401Z
       
UTNN 240230Z 02002KT CAVOK 29/16 Q1007 R33/CLRD60 NOSIG
TAF UTNN 232300Z 2400/2424 28010G20KT CAVOK 
     TEMPO 2406/2414 32014G24KT 
     TEMPO 2416/2424 VRB04KT
       
UTNU 240230Z VRB02KT CAVOK 27/16 Q1006 R31/CLRD70 NOSIG
TAF COR UTNU 232300Z 2400/2424 04010G20KT 8000 NSC TX38/2409Z 
     TEMPO 2400/2404 36006KT
       
UTSA 240230Z 36006KT 9000 NSC 28/07 Q1004 R25/CLRD70 NOSIG
TAF UTSA 232301Z 2400/2424 36010KT 7000 NSC TX40/2410Z 
     TEMPO 2400/2404 VRB03KT 
     TEMPO 2404/2413 02018G28KT 4000 -DS
       
UTSB 240230Z 35012KT CAVOK 25/09 Q1003 R01/CLRD70 NOSIG
TAF UTSB 232300Z 2400/2424 35010KT 7000 NSC TX40/2410Z 
     TEMPO 2400/2404 VRB03KT 
     TEMPO 2404/2413 01018G28KT 4000 -DS
       
UTSK 240230Z 00000KT CAVOK 23/09 Q1001 R34/CLRD70
TAF UTSK 232357Z 2401/2410 35010G20KT CAVOK TX41/2410Z
       
UTSS 240230Z 12006KT 080V170 9999 NSC 26/06 Q1006 R09/CLRD70 NOSIG
TAF UTSS 232257Z 2400/2424 10010G20KT 9999 NSC TX37/2410Z 
     TEMPO 2406/2415 32010G20KT
       
UTST 240230Z 21002KT CAVOK 26/11 Q1002 R88/CLRD70 NOSIG
TAF COR UTST 232300Z 2400/2424 VRB06KT 6000 NSC TX40/2411Z 
     TEMPO 2400/2411 27012G22KT 3000 HZ
       
UTTT 240230Z 05006KT CAVOK 29/10 Q1005 R08R/CLRD70 NOSIG
TAF UTTT 232300Z 2400/2424 09012KT 7000 NSC TX38/2410Z 
     PROB40 
     TEMPO 2406/2415 TS SCT060CB
       
UTDL 240230Z 06004MPS 9999 FEW230 28/10 Q1005 88CLRD70 NOSIG RMK QFE715/0954
TAF UTDL 240000Z 2401/2410 VRB03MPS 9999 NSC 
     TEMPO 2404/2410 23005MPS